Artas, South Dakota
Current Conditions -  °F | °C
As of 7:52 PM on Friday 24 Oct 2014 (Local Time) from KMBG Reporting Station
Scattered Clouds Scattered Clouds  
Wind Chill: 17°   Ceiling: Unl
Heat Index: 17°   Visibility: 10mi
Dew Point:   Wind: 7mph
Humidity: 38%   Direction: 320°NW
Pressure: 29.99"   Gusts: NA
Location:  45.7737°N, 99.5895°W
Report Text: KMBG 250052Z AUTO 32006KT 10SM SCT120 17/03 A2999 RMK AO2 SLP158 T01720028
Loading
Personal Weather Stations






























Interactive Weather Map
Tropical Storm Tracking
New forecast layout! Learn more

10-Day Weather Forecast

Advertisements
Track Severe Weather on mobile